sensor_id;sensor_type;location;lat;lon;timestamp;P1;durP1;ratioP1;P2;durP2;ratioP2
140;SDS011;65;48.778;9.160;2023-06-24T00:00:56;8.68;;;4.72;;
140;SDS011;65;48.778;9.160;2023-06-24T00:03:42;7.57;;;4.38;;
140;SDS011;65;48.778;9.160;2023-06-24T00:06:32;8.88;;;5.47;;
140;SDS011;65;48.778;9.160;2023-06-24T00:09:18;7.68;;;5.28;;
140;SDS011;65;48.778;9.160;2023-06-24T00:12:04;9.27;;;5.30;;
140;SDS011;65;48.778;9.160;2023-06-24T00:14:50;9.07;;;4.90;;
140;SDS011;65;48.778;9.160;2023-06-24T00:17:36;8.00;;;5.30;;
140;SDS011;65;48.778;9.160;2023-06-24T00:20:22;8.63;;;5.38;;
140;SDS011;65;48.778;9.160;2023-06-24T00:23:08;10.10;;;6.22;;
140;SDS011;65;48.778;9.160;2023-06-24T00:25:54;8.90;;;5.30;;
140;SDS011;65;48.778;9.160;2023-06-24T00:28:40;8.10;;;5.05;;
140;SDS011;65;48.778;9.160;2023-06-24T00:31:26;7.32;;;4.63;;
140;SDS011;65;48.778;9.160;2023-06-24T00:34:12;8.77;;;5.13;;
140;SDS011;65;48.778;9.160;2023-06-24T00:36:58;7.32;;;4.70;;
140;SDS011;65;48.778;9.160;2023-06-24T00:39:44;7.95;;;4.97;;
140;SDS011;65;48.778;9.160;2023-06-24T00:42:30;10.75;;;5.05;;
140;SDS011;65;48.778;9.160;2023-06-24T00:45:16;8.32;;;4.88;;
140;SDS011;65;48.778;9.160;2023-06-24T00:48:03;8.20;;;4.43;;
140;SDS011;65;48.778;9.160;2023-06-24T00:50:49;7.40;;;4.65;;
140;SDS011;65;48.778;9.160;2023-06-24T00:53:36;8.05;;;5.28;;
140;SDS011;65;48.778;9.160;2023-06-24T00:56:22;8.05;;;4.93;;
140;SDS011;65;48.778;9.160;2023-06-24T00:59:20;6.88;;;4.70;;
140;SDS011;65;48.778;9.160;2023-06-24T01:02:06;8.52;;;5.22;;
140;SDS011;65;48.778;9.160;2023-06-24T01:04:53;9.10;;;4.88;;
140;SDS011;65;48.778;9.160;2023-06-24T01:07:40;8.32;;;5.10;;
140;SDS011;65;48.778;9.160;2023-06-24T01:10:27;8.55;;;5.55;;
140;SDS011;65;48.778;9.160;2023-06-24T01:13:13;10.43;;;5.72;;
140;SDS011;65;48.778;9.160;2023-06-24T01:16:00;9.85;;;6.00;;
140;SDS011;65;48.778;9.160;2023-06-24T01:18:51;9.93;;;5.95;;
140;SDS011;65;48.778;9.160;2023-06-24T01:24:44;11.13;;;5.82;;
140;SDS011;65;48.778;9.160;2023-06-24T01:30:54;9.05;;;5.60;;
140;SDS011;65;48.778;9.160;2023-06-24T01:40:45;8.32;;;5.30;;
140;SDS011;65;48.778;9.160;2023-06-24T01:43:13;8.30;;;5.28;;
140;SDS011;65;48.778;9.160;2023-06-24T01:46:01;8.75;;;5.75;;
140;SDS011;65;48.778;9.160;2023-06-24T01:48:49;9.43;;;5.45;;
140;SDS011;65;48.778;9.160;2023-06-24T01:51:37;8.20;;;5.05;;
140;SDS011;65;48.778;9.160;2023-06-24T01:54:26;11.00;;;5.53;;
140;SDS011;65;48.778;9.160;2023-06-24T01:57:15;8.07;;;5.40;;
140;SDS011;65;48.778;9.160;2023-06-24T02:00:03;9.40;;;5.57;;
140;SDS011;65;48.778;9.160;2023-06-24T02:02:53;8.25;;;5.25;;
140;SDS011;65;48.778;9.160;2023-06-24T02:05:40;11.07;;;5.22;;
140;SDS011;65;48.778;9.160;2023-06-24T02:08:32;9.68;;;5.25;;
140;SDS011;65;48.778;9.160;2023-06-24T02:11:20;9.43;;;5.43;;
140;SDS011;65;48.778;9.160;2023-06-24T02:14:09;12.02;;;5.53;;
140;SDS011;65;48.778;9.160;2023-06-24T02:16:59;9.80;;;5.63;;
140;SDS011;65;48.778;9.160;2023-06-24T02:19:46;7.68;;;5.35;;
140;SDS011;65;48.778;9.160;2023-06-24T02:22:36;9.57;;;5.60;;
140;SDS011;65;48.778;9.160;2023-06-24T02:25:25;9.02;;;5.63;;
140;SDS011;65;48.778;9.160;2023-06-24T02:28:12;9.52;;;5.47;;
140;SDS011;65;48.778;9.160;2023-06-24T02:30:59;8.93;;;6.20;;
140;SDS011;65;48.778;9.160;2023-06-24T02:33:46;9.15;;;5.88;;
140;SDS011;65;48.778;9.160;2023-06-24T02:36:32;8.52;;;5.88;;
140;SDS011;65;48.778;9.160;2023-06-24T02:39:18;10.00;;;6.60;;
140;SDS011;65;48.778;9.160;2023-06-24T02:42:04;8.95;;;6.50;;
140;SDS011;65;48.778;9.160;2023-06-24T02:44:50;9.73;;;7.10;;
140;SDS011;65;48.778;9.160;2023-06-24T02:47:36;11.75;;;7.13;;
140;SDS011;65;48.778;9.160;2023-06-24T02:50:23;10.95;;;7.22;;
140;SDS011;65;48.778;9.160;2023-06-24T02:53:14;9.52;;;6.88;;
140;SDS011;65;48.778;9.160;2023-06-24T02:56:00;10.75;;;7.30;;
140;SDS011;65;48.778;9.160;2023-06-24T02:58:49;9.82;;;6.72;;
140;SDS011;65;48.778;9.160;2023-06-24T03:01:37;13.90;;;6.35;;
140;SDS011;65;48.778;9.160;2023-06-24T03:04:25;9.63;;;6.78;;
140;SDS011;65;48.778;9.160;2023-06-24T03:07:11;10.63;;;6.78;;
140;SDS011;65;48.778;9.160;2023-06-24T03:09:58;10.07;;;6.60;;
140;SDS011;65;48.778;9.160;2023-06-24T03:12:44;10.13;;;6.80;;
140;SDS011;65;48.778;9.160;2023-06-24T03:15:30;10.25;;;6.55;;
140;SDS011;65;48.778;9.160;2023-06-24T03:18:17;12.18;;;6.30;;
140;SDS011;65;48.778;9.160;2023-06-24T03:21:03;9.00;;;6.40;;
140;SDS011;65;48.778;9.160;2023-06-24T03:23:51;10.32;;;6.05;;
140;SDS011;65;48.778;9.160;2023-06-24T03:26:37;9.65;;;6.40;;
140;SDS011;65;48.778;9.160;2023-06-24T03:29:25;9.00;;;6.28;;
140;SDS011;65;48.778;9.160;2023-06-24T03:32:11;9.55;;;6.43;;
140;SDS011;65;48.778;9.160;2023-06-24T03:34:57;11.50;;;6.50;;
140;SDS011;65;48.778;9.160;2023-06-24T03:37:43;10.23;;;5.90;;
140;SDS011;65;48.778;9.160;2023-06-24T03:40:29;11.77;;;6.05;;
140;SDS011;65;48.778;9.160;2023-06-24T03:43:15;8.50;;;5.55;;
140;SDS011;65;48.778;9.160;2023-06-24T03:46:00;9.30;;;5.95;;
140;SDS011;65;48.778;9.160;2023-06-24T03:48:49;8.77;;;5.55;;
140;SDS011;65;48.778;9.160;2023-06-24T03:51:35;8.73;;;6.30;;
140;SDS011;65;48.778;9.160;2023-06-24T03:54:21;7.93;;;5.45;;
140;SDS011;65;48.778;9.160;2023-06-24T03:57:07;9.80;;;5.88;;
140;SDS011;65;48.778;9.160;2023-06-24T03:59:54;8.52;;;5.55;;
140;SDS011;65;48.778;9.160;2023-06-24T04:02:40;9.38;;;6.18;;
140;SDS011;65;48.778;9.160;2023-06-24T04:05:27;7.88;;;5.40;;
140;SDS011;65;48.778;9.160;2023-06-24T04:08:13;9.70;;;5.85;;
140;SDS011;65;48.778;9.160;2023-06-24T04:10:59;8.10;;;5.38;;
140;SDS011;65;48.778;9.160;2023-06-24T04:13:45;9.32;;;5.80;;
140;SDS011;65;48.778;9.160;2023-06-24T04:16:33;7.78;;;5.70;;
140;SDS011;65;48.778;9.160;2023-06-24T04:19:19;8.88;;;5.70;;
140;SDS011;65;48.778;9.160;2023-06-24T04:22:05;10.95;;;5.70;;
140;SDS011;65;48.778;9.160;2023-06-24T04:24:50;11.10;;;5.50;;
140;SDS011;65;48.778;9.160;2023-06-24T04:27:36;10.30;;;5.90;;
140;SDS011;65;48.778;9.160;2023-06-24T04:30:22;8.60;;;5.22;;
140;SDS011;65;48.778;9.160;2023-06-24T04:33:08;9.43;;;6.10;;
140;SDS011;65;48.778;9.160;2023-06-24T04:35:54;8.82;;;5.88;;
140;SDS011;65;48.778;9.160;2023-06-24T04:38:40;8.40;;;5.53;;
140;SDS011;65;48.778;9.160;2023-06-24T04:41:26;10.15;;;5.80;;
140;SDS011;65;48.778;9.160;2023-06-24T04:44:12;7.72;;;5.60;;
140;SDS011;65;48.778;9.160;2023-06-24T04:46:58;8.93;;;6.13;;
140;SDS011;65;48.778;9.160;2023-06-24T04:49:43;9.60;;;5.88;;
140;SDS011;65;48.778;9.160;2023-06-24T04:52:29;8.68;;;5.65;;
140;SDS011;65;48.778;9.160;2023-06-24T04:55:15;8.45;;;5.82;;
140;SDS011;65;48.778;9.160;2023-06-24T04:58:01;8.18;;;5.68;;
140;SDS011;65;48.778;9.160;2023-06-24T05:00:47;8.63;;;5.90;;
140;SDS011;65;48.778;9.160;2023-06-24T05:03:33;9.13;;;5.35;;
140;SDS011;65;48.778;9.160;2023-06-24T05:06:19;9.05;;;5.78;;
140;SDS011;65;48.778;9.160;2023-06-24T05:09:05;10.98;;;6.25;;
140;SDS011;65;48.778;9.160;2023-06-24T05:11:50;7.55;;;5.30;;
140;SDS011;65;48.778;9.160;2023-06-24T05:14:36;9.25;;;5.55;;
140;SDS011;65;48.778;9.160;2023-06-24T05:17:22;10.02;;;5.82;;
140;SDS011;65;48.778;9.160;2023-06-24T05:20:09;7.40;;;5.20;;
140;SDS011;65;48.778;9.160;2023-06-24T05:22:57;12.50;;;5.68;;
140;SDS011;65;48.778;9.160;2023-06-24T05:25:43;8.32;;;5.50;;
140;SDS011;65;48.778;9.160;2023-06-24T05:28:29;8.27;;;5.65;;
140;SDS011;65;48.778;9.160;2023-06-24T05:31:15;6.97;;;4.97;;
140;SDS011;65;48.778;9.160;2023-06-24T05:34:00;6.57;;;4.68;;
140;SDS011;65;48.778;9.160;2023-06-24T05:36:46;8.32;;;5.13;;
140;SDS011;65;48.778;9.160;2023-06-24T05:39:32;7.15;;;4.53;;
140;SDS011;65;48.778;9.160;2023-06-24T05:42:18;9.02;;;5.10;;
140;SDS011;65;48.778;9.160;2023-06-24T05:45:04;13.90;;;5.47;;
140;SDS011;65;48.778;9.160;2023-06-24T05:47:51;6.55;;;4.78;;
140;SDS011;65;48.778;9.160;2023-06-24T05:50:37;6.53;;;5.00;;
140;SDS011;65;48.778;9.160;2023-06-24T05:53:23;7.05;;;5.10;;
140;SDS011;65;48.778;9.160;2023-06-24T05:56:10;6.97;;;4.70;;
140;SDS011;65;48.778;9.160;2023-06-24T05:58:55;9.20;;;5.25;;
140;SDS011;65;48.778;9.160;2023-06-24T06:01:41;8.98;;;5.07;;
140;SDS011;65;48.778;9.160;2023-06-24T06:04:27;8.05;;;5.85;;
140;SDS011;65;48.778;9.160;2023-06-24T06:07:14;7.75;;;5.03;;
140;SDS011;65;48.778;9.160;2023-06-24T06:09:59;7.20;;;5.22;;
140;SDS011;65;48.778;9.160;2023-06-24T06:12:46;7.68;;;4.78;;
140;SDS011;65;48.778;9.160;2023-06-24T06:15:31;6.97;;;4.75;;
140;SDS011;65;48.778;9.160;2023-06-24T06:18:17;10.30;;;4.70;;
140;SDS011;65;48.778;9.160;2023-06-24T06:21:03;6.45;;;4.43;;
140;SDS011;65;48.778;9.160;2023-06-24T06:23:49;9.00;;;4.75;;
140;SDS011;65;48.778;9.160;2023-06-24T06:26:40;7.28;;;4.30;;
140;SDS011;65;48.778;9.160;2023-06-24T06:29:27;6.97;;;4.40;;
140;SDS011;65;48.778;9.160;2023-06-24T06:32:13;8.73;;;4.85;;
140;SDS011;65;48.778;9.160;2023-06-24T06:38:34;6.90;;;4.45;;
140;SDS011;65;48.778;9.160;2023-06-24T06:41:20;7.03;;;3.75;;
140;SDS011;65;48.778;9.160;2023-06-24T06:44:09;7.10;;;3.92;;
140;SDS011;65;48.778;9.160;2023-06-24T06:46:59;12.60;;;3.90;;
140;SDS011;65;48.778;9.160;2023-06-24T06:49:45;6.65;;;4.00;;
140;SDS011;65;48.778;9.160;2023-06-24T06:52:31;5.90;;;3.88;;
140;SDS011;65;48.778;9.160;2023-06-24T06:55:17;5.10;;;3.50;;
140;SDS011;65;48.778;9.160;2023-06-24T06:58:02;8.07;;;3.85;;
140;SDS011;65;48.778;9.160;2023-06-24T07:00:48;6.45;;;3.95;;
140;SDS011;65;48.778;9.160;2023-06-24T07:03:34;5.15;;;3.45;;
140;SDS011;65;48.778;9.160;2023-06-24T07:06:20;6.15;;;3.90;;
140;SDS011;65;48.778;9.160;2023-06-24T07:09:06;5.93;;;3.92;;
140;SDS011;65;48.778;9.160;2023-06-24T07:11:53;6.55;;;4.00;;
140;SDS011;65;48.778;9.160;2023-06-24T07:14:39;6.55;;;4.05;;
140;SDS011;65;48.778;9.160;2023-06-24T07:17:24;5.63;;;3.75;;
140;SDS011;65;48.778;9.160;2023-06-24T07:20:10;5.10;;;3.47;;
140;SDS011;65;48.778;9.160;2023-06-24T07:22:56;5.03;;;3.50;;
140;SDS011;65;48.778;9.160;2023-06-24T07:25:42;6.40;;;4.00;;
140;SDS011;65;48.778;9.160;2023-06-24T07:28:28;5.40;;;3.78;;
140;SDS011;65;48.778;9.160;2023-06-24T07:31:14;4.88;;;3.42;;
140;SDS011;65;48.778;9.160;2023-06-24T07:34:00;5.43;;;3.30;;
140;SDS011;65;48.778;9.160;2023-06-24T07:36:45;6.70;;;3.58;;
140;SDS011;65;48.778;9.160;2023-06-24T07:39:31;5.10;;;3.40;;
140;SDS011;65;48.778;9.160;2023-06-24T07:42:17;6.18;;;3.65;;
140;SDS011;65;48.778;9.160;2023-06-24T07:45:04;5.57;;;3.55;;
140;SDS011;65;48.778;9.160;2023-06-24T07:47:50;7.63;;;3.80;;
140;SDS011;65;48.778;9.160;2023-06-24T07:50:37;5.03;;;3.63;;
140;SDS011;65;48.778;9.160;2023-06-24T07:53:25;6.65;;;3.88;;
140;SDS011;65;48.778;9.160;2023-06-24T07:56:11;7.70;;;4.28;;
140;SDS011;65;48.778;9.160;2023-06-24T07:58:57;5.70;;;3.80;;
140;SDS011;65;48.778;9.160;2023-06-24T08:01:43;5.80;;;3.63;;
140;SDS011;65;48.778;9.160;2023-06-24T08:04:28;5.53;;;3.78;;
140;SDS011;65;48.778;9.160;2023-06-24T08:07:14;5.25;;;3.63;;
140;SDS011;65;48.778;9.160;2023-06-24T08:10:00;7.03;;;3.53;;
140;SDS011;65;48.778;9.160;2023-06-24T08:12:47;9.10;;;3.95;;
140;SDS011;65;48.778;9.160;2023-06-24T08:15:32;5.53;;;3.70;;
140;SDS011;65;48.778;9.160;2023-06-24T08:18:18;5.30;;;3.17;;
140;SDS011;65;48.778;9.160;2023-06-24T08:21:04;7.55;;;4.13;;
140;SDS011;65;48.778;9.160;2023-06-24T08:23:50;6.72;;;3.80;;
140;SDS011;65;48.778;9.160;2023-06-24T08:26:36;8.13;;;3.85;;
140;SDS011;65;48.778;9.160;2023-06-24T08:29:22;5.60;;;3.33;;
140;SDS011;65;48.778;9.160;2023-06-24T08:32:08;6.68;;;4.00;;
140;SDS011;65;48.778;9.160;2023-06-24T08:34:54;6.65;;;3.90;;
140;SDS011;65;48.778;9.160;2023-06-24T08:37:40;7.45;;;4.20;;
140;SDS011;65;48.778;9.160;2023-06-24T08:40:27;5.13;;;3.50;;
140;SDS011;65;48.778;9.160;2023-06-24T08:43:14;4.72;;;3.20;;
140;SDS011;65;48.778;9.160;2023-06-24T08:46:00;7.47;;;3.30;;
140;SDS011;65;48.778;9.160;2023-06-24T08:48:47;7.10;;;3.47;;
140;SDS011;65;48.778;9.160;2023-06-24T08:51:35;6.03;;;3.55;;
140;SDS011;65;48.778;9.160;2023-06-24T08:54:26;6.05;;;3.58;;
140;SDS011;65;48.778;9.160;2023-06-24T08:57:12;5.65;;;3.65;;
140;SDS011;65;48.778;9.160;2023-06-24T09:00:00;5.60;;;3.50;;
140;SDS011;65;48.778;9.160;2023-06-24T09:02:46;5.35;;;3.58;;
140;SDS011;65;48.778;9.160;2023-06-24T09:05:32;9.95;;;3.70;;
140;SDS011;65;48.778;9.160;2023-06-24T09:08:18;5.18;;;3.45;;
140;SDS011;65;48.778;9.160;2023-06-24T09:11:03;6.90;;;3.97;;
140;SDS011;65;48.778;9.160;2023-06-24T09:13:56;10.07;;;3.80;;
140;SDS011;65;48.778;9.160;2023-06-24T09:16:50;5.93;;;3.75;;
140;SDS011;65;48.778;9.160;2023-06-24T09:19:39;7.28;;;3.33;;
140;SDS011;65;48.778;9.160;2023-06-24T09:22:27;5.18;;;3.38;;
140;SDS011;65;48.778;9.160;2023-06-24T09:25:17;6.40;;;3.50;;
140;SDS011;65;48.778;9.160;2023-06-24T09:28:04;5.78;;;3.40;;
140;SDS011;65;48.778;9.160;2023-06-24T09:31:03;5.28;;;3.13;;
140;SDS011;65;48.778;9.160;2023-06-24T09:33:56;5.18;;;3.38;;
140;SDS011;65;48.778;9.160;2023-06-24T09:36:43;5.35;;;3.30;;
140;SDS011;65;48.778;9.160;2023-06-24T09:39:35;5.00;;;3.15;;
140;SDS011;65;48.778;9.160;2023-06-24T09:42:22;6.35;;;3.63;;
140;SDS011;65;48.778;9.160;2023-06-24T09:45:08;10.23;;;3.20;;
140;SDS011;65;48.778;9.160;2023-06-24T09:47:55;5.82;;;3.20;;
140;SDS011;65;48.778;9.160;2023-06-24T09:50:45;7.28;;;3.85;;
140;SDS011;65;48.778;9.160;2023-06-24T09:53:34;6.50;;;3.40;;
140;SDS011;65;48.778;9.160;2023-06-24T09:56:21;5.22;;;3.05;;
140;SDS011;65;48.778;9.160;2023-06-24T09:59:07;4.82;;;3.17;;
140;SDS011;65;48.778;9.160;2023-06-24T10:01:54;5.35;;;3.17;;
140;SDS011;65;48.778;9.160;2023-06-24T10:04:41;5.68;;;3.40;;
140;SDS011;65;48.778;9.160;2023-06-24T10:07:28;6.30;;;3.10;;
140;SDS011;65;48.778;9.160;2023-06-24T10:10:17;5.35;;;3.53;;
140;SDS011;65;48.778;9.160;2023-06-24T10:13:03;6.20;;;3.42;;
140;SDS011;65;48.778;9.160;2023-06-24T10:15:49;6.38;;;3.08;;
140;SDS011;65;48.778;9.160;2023-06-24T10:18:39;5.43;;;3.28;;
140;SDS011;65;48.778;9.160;2023-06-24T10:21:43;5.38;;;3.00;;
140;SDS011;65;48.778;9.160;2023-06-24T10:24:36;4.90;;;3.20;;
140;SDS011;65;48.778;9.160;2023-06-24T10:27:24;4.85;;;3.03;;
140;SDS011;65;48.778;9.160;2023-06-24T10:30:17;5.35;;;3.05;;
140;SDS011;65;48.778;9.160;2023-06-24T10:33:11;5.13;;;3.20;;
140;SDS011;65;48.778;9.160;2023-06-24T10:35:58;5.88;;;3.55;;
140;SDS011;65;48.778;9.160;2023-06-24T10:38:55;5.53;;;3.50;;
140;SDS011;65;48.778;9.160;2023-06-24T10:41:41;5.20;;;3.28;;
140;SDS011;65;48.778;9.160;2023-06-24T10:44:27;6.63;;;3.30;;
140;SDS011;65;48.778;9.160;2023-06-24T10:50:45;5.13;;;3.53;;
140;SDS011;65;48.778;9.160;2023-06-24T10:53:31;5.25;;;3.40;;
140;SDS011;65;48.778;9.160;2023-06-24T10:56:17;4.78;;;3.08;;
140;SDS011;65;48.778;9.160;2023-06-24T10:59:06;4.82;;;3.20;;
140;SDS011;65;48.778;9.160;2023-06-24T11:01:52;5.50;;;3.22;;
140;SDS011;65;48.778;9.160;2023-06-24T11:04:45;5.85;;;3.03;;
140;SDS011;65;48.778;9.160;2023-06-24T11:07:33;4.63;;;3.15;;
140;SDS011;65;48.778;9.160;2023-06-24T11:10:20;4.07;;;2.85;;
140;SDS011;65;48.778;9.160;2023-06-24T11:13:06;5.40;;;3.15;;
140;SDS011;65;48.778;9.160;2023-06-24T11:15:52;4.63;;;2.97;;
140;SDS011;65;48.778;9.160;2023-06-24T11:18:45;5.75;;;3.22;;
140;SDS011;65;48.778;9.160;2023-06-24T11:21:30;8.80;;;2.95;;
140;SDS011;65;48.778;9.160;2023-06-24T11:24:17;5.00;;;3.38;;
140;SDS011;65;48.778;9.160;2023-06-24T11:27:03;5.80;;;3.17;;
140;SDS011;65;48.778;9.160;2023-06-24T11:29:51;5.10;;;3.20;;
140;SDS011;65;48.778;9.160;2023-06-24T11:32:41;5.18;;;3.50;;
140;SDS011;65;48.778;9.160;2023-06-24T11:35:28;4.80;;;3.00;;
140;SDS011;65;48.778;9.160;2023-06-24T11:38:16;6.13;;;3.22;;
140;SDS011;65;48.778;9.160;2023-06-24T11:41:02;4.75;;;3.38;;
140;SDS011;65;48.778;9.160;2023-06-24T11:47:22;5.00;;;3.20;;
140;SDS011;65;48.778;9.160;2023-06-24T11:50:08;4.65;;;3.08;;
140;SDS011;65;48.778;9.160;2023-06-24T11:52:55;4.80;;;3.03;;
140;SDS011;65;48.778;9.160;2023-06-24T11:55:40;5.57;;;3.22;;
140;SDS011;65;48.778;9.160;2023-06-24T11:58:26;4.57;;;3.15;;
140;SDS011;65;48.778;9.160;2023-06-24T12:01:12;6.65;;;3.20;;
140;SDS011;65;48.778;9.160;2023-06-24T12:04:09;5.40;;;3.50;;
140;SDS011;65;48.778;9.160;2023-06-24T12:06:56;4.53;;;2.85;;
140;SDS011;65;48.778;9.160;2023-06-24T12:09:42;5.57;;;3.38;;
140;SDS011;65;48.778;9.160;2023-06-24T12:12:31;6.43;;;3.50;;
140;SDS011;65;48.778;9.160;2023-06-24T12:15:18;4.97;;;3.22;;
140;SDS011;65;48.778;9.160;2023-06-24T12:18:04;5.50;;;3.33;;
140;SDS011;65;48.778;9.160;2023-06-24T12:20:53;4.80;;;3.30;;
140;SDS011;65;48.778;9.160;2023-06-24T12:23:39;4.40;;;3.22;;
140;SDS011;65;48.778;9.160;2023-06-24T12:26:25;6.45;;;3.22;;
140;SDS011;65;48.778;9.160;2023-06-24T12:29:11;7.30;;;3.47;;
140;SDS011;65;48.778;9.160;2023-06-24T12:31:56;5.30;;;3.30;;
140;SDS011;65;48.778;9.160;2023-06-24T12:34:42;5.45;;;3.22;;
140;SDS011;65;48.778;9.160;2023-06-24T12:37:32;5.82;;;3.40;;
140;SDS011;65;48.778;9.160;2023-06-24T12:40:18;4.72;;;3.28;;
140;SDS011;65;48.778;9.160;2023-06-24T12:43:04;5.75;;;3.50;;
140;SDS011;65;48.778;9.160;2023-06-24T12:45:50;5.43;;;2.90;;
140;SDS011;65;48.778;9.160;2023-06-24T12:48:36;6.43;;;3.75;;
140;SDS011;65;48.778;9.160;2023-06-24T12:51:22;6.18;;;3.70;;
140;SDS011;65;48.778;9.160;2023-06-24T12:54:08;5.43;;;3.47;;
140;SDS011;65;48.778;9.160;2023-06-24T12:56:54;5.85;;;3.40;;
140;SDS011;65;48.778;9.160;2023-06-24T12:59:40;5.63;;;3.50;;
140;SDS011;65;48.778;9.160;2023-06-24T13:02:27;8.85;;;3.58;;
140;SDS011;65;48.778;9.160;2023-06-24T13:05:13;5.60;;;3.33;;
140;SDS011;65;48.778;9.160;2023-06-24T13:07:59;6.18;;;3.30;;
140;SDS011;65;48.778;9.160;2023-06-24T13:10:44;5.20;;;3.40;;
140;SDS011;65;48.778;9.160;2023-06-24T13:13:30;9.00;;;3.47;;
140;SDS011;65;48.778;9.160;2023-06-24T13:16:16;5.47;;;3.60;;
140;SDS011;65;48.778;9.160;2023-06-24T13:19:02;5.10;;;3.22;;
140;SDS011;65;48.778;9.160;2023-06-24T13:21:48;6.43;;;3.20;;
140;SDS011;65;48.778;9.160;2023-06-24T13:24:34;5.28;;;3.60;;
140;SDS011;65;48.778;9.160;2023-06-24T13:27:20;5.78;;;3.60;;
140;SDS011;65;48.778;9.160;2023-06-24T13:30:08;7.53;;;3.60;;
140;SDS011;65;48.778;9.160;2023-06-24T13:32:54;5.38;;;3.33;;
140;SDS011;65;48.778;9.160;2023-06-24T13:35:40;7.82;;;3.60;;
140;SDS011;65;48.778;9.160;2023-06-24T13:38:26;5.70;;;3.53;;
140;SDS011;65;48.778;9.160;2023-06-24T13:41:12;4.97;;;3.28;;
140;SDS011;65;48.778;9.160;2023-06-24T13:44:01;6.47;;;3.90;;
140;SDS011;65;48.778;9.160;2023-06-24T13:46:48;5.28;;;3.17;;
140;SDS011;65;48.778;9.160;2023-06-24T13:49:35;6.53;;;3.38;;
140;SDS011;65;48.778;9.160;2023-06-24T13:52:21;5.85;;;3.45;;
140;SDS011;65;48.778;9.160;2023-06-24T13:55:07;5.78;;;3.63;;
140;SDS011;65;48.778;9.160;2023-06-24T13:57:53;6.78;;;3.33;;
140;SDS011;65;48.778;9.160;2023-06-24T14:00:39;5.20;;;3.50;;
140;SDS011;65;48.778;9.160;2023-06-24T14:03:25;5.35;;;3.45;;
140;SDS011;65;48.778;9.160;2023-06-24T14:06:13;5.97;;;3.60;;
140;SDS011;65;48.778;9.160;2023-06-24T14:09:01;5.32;;;3.35;;
140;SDS011;65;48.778;9.160;2023-06-24T14:11:47;5.55;;;3.60;;
140;SDS011;65;48.778;9.160;2023-06-24T14:14:34;5.63;;;3.50;;
140;SDS011;65;48.778;9.160;2023-06-24T14:17:22;6.50;;;3.88;;
140;SDS011;65;48.778;9.160;2023-06-24T14:20:08;5.60;;;3.60;;
140;SDS011;65;48.778;9.160;2023-06-24T14:22:54;5.40;;;3.42;;
140;SDS011;65;48.778;9.160;2023-06-24T14:25:42;5.38;;;3.22;;
140;SDS011;65;48.778;9.160;2023-06-24T14:28:29;6.70;;;3.60;;
140;SDS011;65;48.778;9.160;2023-06-24T14:31:15;6.00;;;3.63;;
140;SDS011;65;48.778;9.160;2023-06-24T14:34:01;6.25;;;3.50;;
140;SDS011;65;48.778;9.160;2023-06-24T14:36:48;5.63;;;3.78;;
140;SDS011;65;48.778;9.160;2023-06-24T14:39:34;7.00;;;3.40;;
140;SDS011;65;48.778;9.160;2023-06-24T14:42:21;6.45;;;3.65;;
140;SDS011;65;48.778;9.160;2023-06-24T14:45:07;5.90;;;3.65;;
140;SDS011;65;48.778;9.160;2023-06-24T14:47:54;5.85;;;3.42;;
140;SDS011;65;48.778;9.160;2023-06-24T14:50:40;6.85;;;3.80;;
140;SDS011;65;48.778;9.160;2023-06-24T14:53:26;4.57;;;3.25;;
140;SDS011;65;48.778;9.160;2023-06-24T14:56:12;4.80;;;3.33;;
140;SDS011;65;48.778;9.160;2023-06-24T14:58:59;5.63;;;3.55;;
140;SDS011;65;48.778;9.160;2023-06-24T15:01:46;5.90;;;3.47;;
140;SDS011;65;48.778;9.160;2023-06-24T15:04:32;7.40;;;3.65;;
140;SDS011;65;48.778;9.160;2023-06-24T15:07:18;6.00;;;3.70;;
140;SDS011;65;48.778;9.160;2023-06-24T15:10:04;5.35;;;3.50;;
140;SDS011;65;48.778;9.160;2023-06-24T15:12:52;6.22;;;3.83;;
140;SDS011;65;48.778;9.160;2023-06-24T15:15:38;5.35;;;3.50;;
140;SDS011;65;48.778;9.160;2023-06-24T15:18:24;5.93;;;3.65;;
140;SDS011;65;48.778;9.160;2023-06-24T15:21:10;7.82;;;3.70;;
140;SDS011;65;48.778;9.160;2023-06-24T15:23:56;6.45;;;3.88;;
140;SDS011;65;48.778;9.160;2023-06-24T15:26:42;5.38;;;3.55;;
140;SDS011;65;48.778;9.160;2023-06-24T15:29:28;8.20;;;3.88;;
140;SDS011;65;48.778;9.160;2023-06-24T15:32:14;5.50;;;3.40;;
140;SDS011;65;48.778;9.160;2023-06-24T15:35:03;5.82;;;3.90;;
140;SDS011;65;48.778;9.160;2023-06-24T15:37:49;7.47;;;4.07;;
140;SDS011;65;48.778;9.160;2023-06-24T15:40:35;5.70;;;3.60;;
140;SDS011;65;48.778;9.160;2023-06-24T15:43:28;7.35;;;4.00;;
140;SDS011;65;48.778;9.160;2023-06-24T15:46:14;9.38;;;3.38;;
140;SDS011;65;48.778;9.160;2023-06-24T15:49:01;5.50;;;3.65;;
140;SDS011;65;48.778;9.160;2023-06-24T15:51:47;5.78;;;3.78;;
140;SDS011;65;48.778;9.160;2023-06-24T15:54:33;7.57;;;3.83;;
140;SDS011;65;48.778;9.160;2023-06-24T15:57:19;5.07;;;3.25;;
140;SDS011;65;48.778;9.160;2023-06-24T16:00:05;6.95;;;3.90;;
140;SDS011;65;48.778;9.160;2023-06-24T16:02:51;5.10;;;3.45;;
140;SDS011;65;48.778;9.160;2023-06-24T16:05:37;4.70;;;3.25;;
140;SDS011;65;48.778;9.160;2023-06-24T16:08:23;5.32;;;3.40;;
140;SDS011;65;48.778;9.160;2023-06-24T16:11:10;8.10;;;4.00;;
140;SDS011;65;48.778;9.160;2023-06-24T16:13:55;5.80;;;3.67;;
140;SDS011;65;48.778;9.160;2023-06-24T16:16:41;6.03;;;3.70;;
140;SDS011;65;48.778;9.160;2023-06-24T16:19:27;5.28;;;3.47;;
140;SDS011;65;48.778;9.160;2023-06-24T16:22:13;6.68;;;3.83;;
140;SDS011;65;48.778;9.160;2023-06-24T16:24:59;5.97;;;3.72;;
140;SDS011;65;48.778;9.160;2023-06-24T16:27:45;6.38;;;4.05;;
140;SDS011;65;48.778;9.160;2023-06-24T16:30:32;6.53;;;3.58;;
140;SDS011;65;48.778;9.160;2023-06-24T16:33:18;5.53;;;3.40;;
140;SDS011;65;48.778;9.160;2023-06-24T16:36:04;5.97;;;3.50;;
140;SDS011;65;48.778;9.160;2023-06-24T16:38:50;8.15;;;3.88;;
140;SDS011;65;48.778;9.160;2023-06-24T16:41:36;8.38;;;3.42;;
140;SDS011;65;48.778;9.160;2023-06-24T16:44:22;5.57;;;3.58;;
140;SDS011;65;48.778;9.160;2023-06-24T16:47:08;5.75;;;3.30;;
140;SDS011;65;48.778;9.160;2023-06-24T16:49:54;5.38;;;3.38;;
140;SDS011;65;48.778;9.160;2023-06-24T16:52:40;4.85;;;2.92;;
140;SDS011;65;48.778;9.160;2023-06-24T16:55:26;6.25;;;3.65;;
140;SDS011;65;48.778;9.160;2023-06-24T16:58:12;6.47;;;3.58;;
140;SDS011;65;48.778;9.160;2023-06-24T17:00:58;6.72;;;3.70;;
140;SDS011;65;48.778;9.160;2023-06-24T17:03:44;5.72;;;3.58;;
140;SDS011;65;48.778;9.160;2023-06-24T17:06:31;7.63;;;3.55;;
140;SDS011;65;48.778;9.160;2023-06-24T17:09:17;4.85;;;3.20;;
140;SDS011;65;48.778;9.160;2023-06-24T17:12:03;5.38;;;3.40;;
140;SDS011;65;48.778;9.160;2023-06-24T17:14:49;5.82;;;3.67;;
140;SDS011;65;48.778;9.160;2023-06-24T17:17:35;5.75;;;3.80;;
140;SDS011;65;48.778;9.160;2023-06-24T17:20:22;6.90;;;3.55;;
140;SDS011;65;48.778;9.160;2023-06-24T17:23:08;6.05;;;3.53;;
140;SDS011;65;48.778;9.160;2023-06-24T17:25:54;5.20;;;3.40;;
140;SDS011;65;48.778;9.160;2023-06-24T17:28:40;7.03;;;3.45;;
140;SDS011;65;48.778;9.160;2023-06-24T17:31:27;4.95;;;3.45;;
140;SDS011;65;48.778;9.160;2023-06-24T17:34:13;5.47;;;3.50;;
140;SDS011;65;48.778;9.160;2023-06-24T17:36:59;5.65;;;3.60;;
140;SDS011;65;48.778;9.160;2023-06-24T17:39:45;5.18;;;3.15;;
140;SDS011;65;48.778;9.160;2023-06-24T17:42:31;6.13;;;3.88;;
140;SDS011;65;48.778;9.160;2023-06-24T17:45:17;5.10;;;3.08;;
140;SDS011;65;48.778;9.160;2023-06-24T17:48:03;7.50;;;3.10;;
140;SDS011;65;48.778;9.160;2023-06-24T17:50:49;6.28;;;3.72;;
140;SDS011;65;48.778;9.160;2023-06-24T17:56:44;5.45;;;3.67;;
140;SDS011;65;48.778;9.160;2023-06-24T17:59:30;6.07;;;3.63;;
140;SDS011;65;48.778;9.160;2023-06-24T18:02:16;6.25;;;3.40;;
140;SDS011;65;48.778;9.160;2023-06-24T18:05:02;6.72;;;3.95;;
140;SDS011;65;48.778;9.160;2023-06-24T18:07:48;5.97;;;3.58;;
140;SDS011;65;48.778;9.160;2023-06-24T18:10:34;5.50;;;3.33;;
140;SDS011;65;48.778;9.160;2023-06-24T18:13:21;6.75;;;3.47;;
140;SDS011;65;48.778;9.160;2023-06-24T18:16:07;5.25;;;3.38;;
140;SDS011;65;48.778;9.160;2023-06-24T18:18:53;6.20;;;3.70;;
140;SDS011;65;48.778;9.160;2023-06-24T18:21:39;5.47;;;3.60;;
140;SDS011;65;48.778;9.160;2023-06-24T18:24:25;5.97;;;3.75;;
140;SDS011;65;48.778;9.160;2023-06-24T18:27:11;6.95;;;3.72;;
140;SDS011;65;48.778;9.160;2023-06-24T18:29:59;5.25;;;3.50;;
140;SDS011;65;48.778;9.160;2023-06-24T18:32:45;5.72;;;3.72;;